METAR Data
IDs: Format: Raw Decoded Include TAF

Data at: 1350 UTC 14 Dec 2019

KLLQ 141315Z AUTO 22006KT 1/4SM FG VV002 08/07 A2984 RMK AO2 T00780067
KLLQ 141303Z AUTO 25007KT 1/2SM FG VV002 07/07 A2985 RMK AO2 T00720067
KLLQ 141253Z AUTO 26006KT 1/4SM FG VV002 07/07 A2984 RMK AO2 SLP104 T00720067
KLLQ 141220Z AUTO 25005KT 1/2SM FG VV002 07/07 A2983 RMK AO2 T00720067
KLLQ 141153Z AUTO 26005KT 1/4SM FG VV002 07/07 A2983 RMK AO2 SLP100 T00720067 10072 20044 55000
KLLQ 141144Z AUTO 26005KT 1/4SM FG VV002 07/07 A2983 RMK AO2 T00720067
KLLQ 141122Z AUTO 26005KT 1/2SM FG VV002 07/07 A2983 RMK AO2 T00720067
KLLQ 141053Z AUTO 27004KT 1/4SM FG VV002 07/06 A2983 RMK AO2 SLP099 T00720061
KLLQ 141005Z AUTO 28006KT 1/4SM FG VV002 07/06 A2983 RMK AO2 T00670061
KLLQ 140953Z AUTO 28005KT 1/2SM FG VV002 07/06 A2982 RMK AO2 SLP098 T00670061
KLLQ 140853Z AUTO 28004KT 1/2SM FG VV002 06/04 A2983 RMK AO2 SLP100 T00560044 55001
KLLQ 140831Z AUTO 29003KT 3/4SM BR VV003 05/04 A2982 RMK AO2 T00500044
KLLQ 140821Z AUTO 30004KT 1 1/4SM BR FEW004 04/04 A2983 RMK AO2 T00440039
KLLQ 140810Z AUTO 00000KT 3/4SM BR VV003 04/04 A2982 RMK AO2 T00440039
KLLQ 140804Z AUTO 27003KT 1 1/4SM BR SCT003 04/03 A2982 RMK AO2 T00440033
KLLQ 140753Z AUTO 00000KT 1/2SM FG VV003 04/03 A2982 RMK AO2 SLP097 T00440033
KLLQ 140724Z AUTO 26004KT 1/2SM FG VV002 05/04 A2982 RMK AO2 T00500044
KLLQ 140704Z AUTO 00000KT 1/4SM FG VV001 06/06 A2983 RMK AO2 T00560056
KLLQ 140653Z AUTO 25003KT 1/2SM FG VV001 06/05 A2983 RMK AO2 SLP101 T00560050
KLLQ 140650Z AUTO 28003KT 1/2SM FG VV001 06/05 A2983 RMK AO2
KLLQ 140619Z AUTO 29003KT 1/4SM FG VV001 04/03 A2983 RMK AO2 T00440033
KLLQ 140609Z AUTO 30003KT 1 3/4SM BR BKN002 04/03 A2983 RMK AO2 T00440033
KLLQ 140604Z AUTO 00000KT 4SM BR BKN002 04/03 A2983 RMK AO2 T00440033
KLLQ 140553Z AUTO 00000KT 4SM BR SCT003 04/04 A2983 RMK AO2 SLP100 T00440039 10106 20044 401390022 58007
KLLQ 140535Z AUTO 30003KT 4SM BR SCT002 05/04 A2984 RMK AO2 T00500039
KLLQ 140530Z AUTO 00000KT 2SM BR BKN002 05/04 A2984 RMK AO2 T00500039
KLLQ 140513Z AUTO 00000KT 1/2SM FG VV002 04/04 A2984 RMK AO2 T00440039
KLLQ 140503Z AUTO 00000KT 1/4SM FG VV002 05/04 A2984 RMK AO2 T00500039
KLLQ 140453Z AUTO 27003KT 1/2SM FG VV001 05/04 A2984 RMK AO2 SLP104 T00500039
KLLQ 140428Z AUTO 00000KT 1/4SM FG BKN003 OVC031 05/04 A2985 RMK AO2 T00500044
KLLQ 140413Z AUTO 00000KT 1/2SM FG BKN002 BKN031 06/04 A2984 RMK AO2 T00560044
KLLQ 140406Z AUTO 00000KT 1 3/4SM BR FEW002 BKN031 06/04 A2984 RMK AO2 T00560044
KLLQ 140400Z AUTO 00000KT 4SM BR FEW002 BKN031 06/05 A2984 RMK AO2 T00610050
KLLQ 140353Z AUTO 00000KT 2 1/2SM BR BKN002 BKN031 06/05 A2984 RMK AO2 SLP103 T00610050
KLLQ 140336Z AUTO 00000KT 1/4SM FG VV002 07/06 A2985 RMK AO2 T00670056
KLLQ 140304Z AUTO 00000KT 3/4SM BR VV002 07/06 A2984 RMK AO2 T00670061
KLLQ 140253Z AUTO 00000KT 1/4SM FG VV002 07/07 A2985 RMK AO2 SLP107 T00720067 50001
KLLQ 140246Z AUTO 00000KT 1/4SM FG VV002 07/06 A2985 RMK AO2 T00720061
KLLQ 140236Z AUTO 00000KT 3/4SM BR VV003 08/06 A2985 RMK AO2 T00780061
KLLQ 140231Z AUTO 00000KT 2SM BR CLR 08/07 A2985 RMK AO2 VIS 1V3 T00830067
KLLQ 140153Z AUTO 00000KT 5SM BR CLR 08/08 A2986 RMK AO2 SLP111 T00830078
KLLQ 140053Z AUTO 00000KT 10SM BKN031 OVC048 11/08 A2986 RMK AO2 SLP110 T01060083
KLLQ 132353Z AUTO 15004KT 5SM HZ BKN042 OVC075 11/08 A2985 RMK AO2 SLP106 T01110083 10139 20111 53001
KLLQ 132326Z AUTO 17004KT 7SM SCT014 BKN030 11/08 A2984 RMK AO2 T01110083
KLLQ 132301Z AUTO 00000KT 10SM OVC014 12/08 A2984 RMK AO2 T01170083
KLLQ 132253Z AUTO 00000KT 10SM OVC015 12/08 A2984 RMK AO2 SLP103 T01170083
KLLQ 132232Z AUTO 15004KT 10SM BKN015 OVC075 12/08 A2983 RMK AO2 T01220083
KLLQ 132153Z AUTO 12005KT 10SM FEW014 BKN045 13/08 A2983 RMK AO2 SLP100 T01280083
KLLQ 132104Z AUTO 15004KT 10SM FEW016 SCT040 OVC047 13/08 A2984 RMK AO2 T01330083
KLLQ 132053Z AUTO VRB04KT 10SM FEW017 BKN029 OVC047 13/08 A2984 RMK AO2 SLP105 T01330083 56014
KLLQ 132026Z AUTO 08004KT 10SM SCT019 BKN026 OVC050 13/08 A2985 RMK AO2 T01330083
KLLQ 132010Z AUTO 12005KT 10SM FEW017 SCT023 OVC050 13/08 A2986 RMK AO2 T01330083
KLLQ 131953Z AUTO 12004KT 10SM BKN017 BKN044 OVC055 13/08 A2986 RMK AO2 SLP111 T01330083
KLLQ 131950Z AUTO 12004KT 10SM SCT017 BKN044 OVC055 13/08 A2986 RMK AO2
KLLQ 131941Z AUTO 04006KT 10SM BKN017 BKN043 OVC055 13/08 A2986 RMK AO2 T01330083
KLLQ 131934Z AUTO 12003KT 10SM SCT017 BKN043 OVC055 13/08 A2987 RMK AO2 T01330083
KLLQ 131911Z AUTO 00000KT 10SM OVC016 13/08 A2988 RMK AO2 T01280083
KLLQ 131853Z AUTO 00000KT 10SM OVC014 13/08 A2989 RMK AO2 SLP120 T01280083
KLLQ 131817Z AUTO 07004KT 10SM BKN010 OVC070 12/08 A2991 RMK AO2 T01220083
KLLQ 131806Z AUTO 00000KT 10SM SCT008 OVC070 12/08 A2991 RMK AO2 T01220083
KLLQ 131753Z AUTO 00000KT 10SM BKN009 OVC070 12/08 A2993 RMK AO2 CIG 007V011 SLP135 T01170083 10122 20072 58023
KLLQ 131722Z AUTO 00000KT 10SM OVC007 11/08 A2996 RMK AO2 T01060083
KLLQ 131641Z AUTO 16003KT 10SM OVC005 09/08 A2998 RMK AO2 T00940078
KLLQ 131553Z AUTO 00000KT 10SM OVC003 09/08 A2999 RMK AO2 SLP156 T00890078
KLLQ 131453Z AUTO 17004KT 4SM BR OVC003 08/08 A3000 RMK AO2 SLP159 T00830078 56007
KLLQ 131448Z AUTO 17003KT 3SM BR OVC003 08/07 A3000 RMK AO2
KLLQ 131438Z AUTO 16003KT 1 1/2SM BR OVC003 08/07 A3000 RMK AO2 T00830072
KLLQ 131423Z AUTO 14004KT 1/2SM FG VV003 08/07 A3000 RMK AO2 T00830072
KLLQ 131411Z AUTO 18003KT 1SM BR OVC004 08/07 A3000 RMK AO2 T00830072
KLLQ 131353Z AUTO 00000KT 1/2SM FG VV004 08/07 A3000 RMK AO2 SLP159 T00780072
KLLQ 131253Z AUTO 00000KT 1/4SM FG VV002 07/07 A3001 RMK AO2 SLP163 T00720067
KLLQ 131153Z AUTO 00000KT 1/4SM FG VV002 07/06 A3002 RMK AO2 SLP166 T00720061 10072 20022 56003
KLLQ 131053Z AUTO 00000KT 1/4SM FG VV002 07/07 A3002 RMK AO2 SLP165 T00720067
KLLQ 131051Z AUTO 00000KT 1/4SM FG VV002 07/07 A3002 RMK AO2
KLLQ 130953Z AUTO 15003KT 1/2SM FG VV002 07/06 A3003 RMK AO2 SLP168 T00670061
KLLQ 130942Z AUTO 14004KT 1/2SM FG VV002 07/06 A3003 RMK AO2 T00670056
KLLQ 130853Z AUTO 00000KT 1/4SM FG VV002 06/06 A3006 RMK AO2 SLP177 T00610056 58018
KLLQ 130753Z AUTO 13003KT 1/4SM FG VV002 06/05 A3008 RMK AO2 SLP184 T00560050
KLLQ 130702Z AUTO 14005KT 1/4SM FG VV002 04/04 A3009 RMK AO2 T00440039
KLLQ 130653Z AUTO 14005KT 1/2SM FG VV002 04/03 A3010 RMK AO2 SLP190 T00440033
KLLQ 130643Z AUTO 13005KT 1 3/4SM BR BKN002 OVC006 04/03 A3010 RMK AO2 T00390028
KLLQ 130639Z AUTO 12004KT 7SM OVC004 04/02 A3010 RMK AO2 T00390022
KLLQ 130626Z AUTO 11004KT 10SM BKN006 02/01 A3011 RMK AO2 T00220006
KLLQ 130612Z AUTO 12003KT 10SM SCT006 03/01 A3011 RMK AO2 T00280011
KLLQ 130553Z AUTO 13004KT 10SM CLR 02/01 A3011 RMK AO2 SLP196 T00220006 10067 20022 401221017 56010
KLLQ 130453Z AUTO 00000KT 10SM CLR 02/01 A3012 RMK AO2 SLP199 T00220006
KLLQ 130353Z AUTO 00000KT 10SM CLR 03/01 A3013 RMK AO2 SLP202 T00280011
KLLQ 130253Z AUTO 00000KT 10SM CLR 03/01 A3014 RMK AO2 SLP207 T00280011 58007
KLLQ 130153Z AUTO 00000KT 10SM CLR 03/01 A3016 RMK AO2 SLP214 T00330011